Terminal Aerodrome Forecast
Issued by NWS Wilmington, OH

Current Version | Previous Version | Text Only | Print | Product List | Glossary Off
Versions: 1 2 3 4 5 6 7 8 9 10 11 12 13 14 15 16 17 18 19 20 21 22 23 24 25 26 27 28 29 30 31 32

000
FTUS41 KILN 031315 AAA
TAFCVG
TAF AMD
KCVG 031315Z 0313/0418 30004KT P6SM OVC012
      TEMPO 0314/0316 5SM BR OVC008
     FM031600 34005KT P6SM BKN025 OVC040
     FM031800 32006KT P6SM BKN040
     FM040600 28005KT P6SM SCT040 SCT100
     FM040900 23004KT P6SM SCT040 BKN150
     FM041500 23009G18KT 5SM -SHRA OVC040=

USA.gov is the U.S. government's official web portal to all federal, state and local government web resources and services.